Time;durP1;ratioP1;P1;durP2;ratioP2;P2;SDS_P1;SDS_P2;PMS_P1;PMS_P2;Temp;Humidity;BMP_temperature;BMP_pressure;BME280_temperature;BME280_humidity;BME280_pressure;Samples;Min_cycle;Max_cycle;Signal;HPM_P1;HPM_P2
2021/10/26 00:00:26;;;;;;;14.93;9.50;;;;;;;11.13;98.70;101472.59;4985799;28;20053;-76
2021/10/26 00:02:52;;;;;;;14.50;8.77;;;;;;;11.11;99.16;101473.50;4977224;28;20039;-76
2021/10/26 00:05:18;;;;;;;14.52;9.32;;;;;;;11.16;98.89;101472.56;4985493;28;20501;-75
2021/10/26 00:07:45;;;;;;;15.13;8.55;;;;;;;11.12;98.58;101473.50;4988287;28;20664;-76
2021/10/26 00:10:13;;;;;;;14.23;9.02;;;;;;;11.15;98.77;101464.78;4987676;28;20046;-77
2021/10/26 00:12:41;;;;;;;13.30;8.32;;;;;;;11.15;98.49;101464.78;4983054;28;20720;-76
2021/10/26 00:15:09;;;;;;;15.32;9.20;;;;;;;11.14;98.75;101469.13;4979806;28;20046;-76
2021/10/26 00:17:35;;;;;;;13.57;7.82;;;;;;;11.19;99.06;101469.94;4981469;28;20054;-75
2021/10/26 00:20:02;;;;;;;14.75;9.05;;;;;;;11.20;98.35;101474.28;4981338;28;20054;-76
2021/10/26 00:22:28;;;;;;;17.13;8.82;;;;;;;11.17;98.45;101479.50;4980239;28;20050;-77
2021/10/26 00:24:55;;;;;;;10.43;7.57;;;;;;;11.23;98.91;101472.53;4983679;28;20120;-74
2021/10/26 00:27:21;;;;;;;15.27;9.30;;;;;;;11.31;98.89;101468.94;4986660;28;20061;-76
2021/10/26 00:29:49;;;;;;;15.02;8.60;;;;;;;11.29;98.94;101477.66;4973307;28;20471;-75
2021/10/26 00:32:16;;;;;;;14.00;8.88;;;;;;;11.33;98.82;101476.75;4983951;28;20050;-77
2021/10/26 00:34:43;;;;;;;13.57;8.45;;;;;;;11.32;98.58;101477.66;4986499;28;20104;-76
2021/10/26 00:37:09;;;;;;;14.45;9.40;;;;;;;11.20;99.08;101476.00;4984000;28;20081;-76
2021/10/26 00:39:36;;;;;;;16.48;9.23;;;;;;;11.25;99.69;101481.16;4987030;28;20112;-76
2021/10/26 00:42:04;;;;;;;20.50;9.38;;;;;;;11.29;99.54;101473.31;4977840;28;20057;-76
2021/10/26 00:44:31;;;;;;;13.25;8.40;;;;;;;11.27;99.22;101474.19;4981483;28;20045;-76
2021/10/26 00:47:00;;;;;;;14.38;9.23;;;;;;;11.23;99.44;101472.53;4986135;28;20145;-76
2021/10/26 00:49:27;;;;;;;18.17;9.68;;;;;;;11.16;99.63;101474.31;4984573;28;20098;-76
2021/10/26 00:51:55;;;;;;;20.10;10.52;;;;;;;11.11;99.78;101476.97;4986830;28;20101;-76
2021/10/26 00:54:23;;;;;;;14.90;8.85;;;;;;;11.10;100.00;101484.78;4979819;28;20101;-75
2021/10/26 00:56:50;;;;;;;18.35;9.55;;;;;;;11.11;100.00;101484.78;4977512;28;20060;-76
2021/10/26 00:59:17;;;;;;;17.30;9.13;;;;;;;11.15;100.00;101491.66;4981490;28;20134;-77
2021/10/26 01:01:43;;;;;;;17.77;9.55;;;;;;;11.14;100.00;101494.31;4987987;28;20525;-76
2021/10/26 01:04:11;;;;;;;17.30;9.05;;;;;;;11.11;100.00;101494.31;4983315;28;20050;-76
2021/10/26 01:06:38;;;;;;;13.00;8.45;;;;;;;11.12;100.00;101489.13;4986301;28;20503;-76
2021/10/26 01:09:05;;;;;;;13.60;8.70;;;;;;;11.09;100.00;101491.75;4988302;28;20062;-76
2021/10/26 01:11:33;;;;;;;18.00;9.13;;;;;;;11.09;100.00;101483.06;4990360;28;20050;-76
2021/10/26 01:14:00;;;;;;;16.02;9.38;;;;;;;11.10;100.00;101493.47;4985923;28;20455;-76
2021/10/26 01:16:26;;;;;;;14.02;9.40;;;;;;;11.11;100.00;101490.00;4984488;28;20401;-76
2021/10/26 01:18:53;;;;;;;13.40;9.40;;;;;;;11.20;100.00;101489.03;4981717;28;20464;-76
2021/10/26 01:21:21;;;;;;;18.35;9.95;;;;;;;11.17;100.00;101487.31;4985091;28;20401;-77
2021/10/26 01:23:48;;;;;;;17.02;9.07;;;;;;;11.12;99.98;101483.03;4982344;28;20050;-76
2021/10/26 01:26:14;;;;;;;15.10;8.73;;;;;;;11.06;100.00;101486.56;4990163;28;20054;-77
2021/10/26 01:28:41;;;;;;;15.13;9.90;;;;;;;11.12;100.00;101480.44;4982071;28;20758;-77
2021/10/26 01:31:08;;;;;;;14.52;9.43;;;;;;;11.10;100.00;101490.00;4978605;28;20054;-76
2021/10/26 01:33:35;;;;;;;16.65;10.02;;;;;;;11.03;100.00;101489.19;4985134;28;20054;-76
2021/10/26 01:36:02;;;;;;;17.17;10.45;;;;;;;11.07;100.00;101492.63;4980337;28;20053;-76
2021/10/26 01:38:30;;;;;;;14.70;9.68;;;;;;;11.02;100.00;101487.47;4982886;28;20050;-78
2021/10/26 01:40:56;;;;;;;16.63;9.68;;;;;;;10.98;100.00;101498.78;4985864;28;20070;-76
2021/10/26 01:43:22;;;;;;;14.50;9.50;;;;;;;11.01;100.00;101494.41;4988802;28;20400;-76
2021/10/26 01:45:51;;;;;;;17.40;10.10;;;;;;;11.01;100.00;101504.81;4988307;28;20046;-76
2021/10/26 01:48:17;;;;;;;17.23;10.00;;;;;;;10.99;100.00;101493.56;4980610;28;20101;-77
2021/10/26 01:50:44;;;;;;;15.05;9.75;;;;;;;11.01;100.00;101490.97;4986817;28;20050;-77
2021/10/26 01:53:10;;;;;;;17.13;10.38;;;;;;;11.06;100.00;101490.91;4988030;28;20046;-76
2021/10/26 01:55:39;;;;;;;16.20;9.90;;;;;;;11.04;100.00;101493.50;4988537;28;20082;-78
2021/10/26 01:58:06;;;;;;;17.10;10.25;;;;;;;11.03;100.00;101490.06;4986723;28;20050;-77
2021/10/26 02:00:33;;;;;;;17.13;9.88;;;;;;;11.06;100.00;101496.97;4984664;28;20051;-77
2021/10/26 02:02:59;;;;;;;14.68;9.48;;;;;;;11.06;100.00;101499.56;4985500;28;20046;-79
2021/10/26 02:05:26;;;;;;;17.25;10.65;;;;;;;11.03;100.00;101497.88;4986406;28;20047;-76
2021/10/26 02:07:52;;;;;;;20.20;9.68;;;;;;;11.12;100.00;101491.72;4982999;28;20503;-77
2021/10/26 02:10:20;;;;;;;19.38;10.55;;;;;;;11.00;100.00;101492.69;4986168;28;20042;-77
2021/10/26 02:12:48;;;;;;;16.02;9.88;;;;;;;11.06;100.00;101491.75;4989372;28;20058;-76
2021/10/26 02:15:14;;;;;;;16.50;9.98;;;;;;;10.96;100.00;101490.13;4984877;28;20097;-77
2021/10/26 02:17:41;;;;;;;18.42;9.85;;;;;;;11.00;100.00;101492.69;4983347;28;20387;-76
2021/10/26 02:20:08;;;;;;;20.38;10.25;;;;;;;10.94;100.00;101495.34;4979651;28;20459;-78
2021/10/26 02:22:34;;;;;;;17.27;10.38;;;;;;;10.91;100.00;101486.69;4983860;28;20089;-77
2021/10/26 02:25:01;;;;;;;18.58;10.50;;;;;;;10.89;100.00;101489.28;4984321;28;20046;-77
2021/10/26 02:27:27;;;;;;;23.38;11.27;;;;;;;10.98;100.00;101497.03;4986712;28;20062;-77
2021/10/26 02:29:55;;;;;;;17.33;10.80;;;;;;;10.95;100.00;101496.19;4986033;28;20580;-77
2021/10/26 02:32:21;;;;;;;18.23;10.50;;;;;;;11.03;100.00;101494.38;4988666;28;20050;-76
2021/10/26 02:34:48;;;;;;;17.70;11.80;;;;;;;11.00;100.00;101495.28;4988231;28;20042;-77
2021/10/26 02:37:14;;;;;;;16.92;10.68;;;;;;;11.03;100.00;101495.25;4986726;28;20055;-77
2021/10/26 02:39:41;;;;;;;16.48;10.90;;;;;;;11.01;100.00;101489.19;4982531;28;20054;-76
2021/10/26 02:42:08;;;;;;;17.83;11.18;;;;;;;11.02;100.00;101490.94;4988163;28;20512;-76
2021/10/26 02:44:34;;;;;;;17.60;10.90;;;;;;;11.01;100.00;101488.34;4986365;28;20096;-77
2021/10/26 02:47:02;;;;;;;17.40;11.18;;;;;;;10.98;100.00;101493.56;4982387;28;20055;-77
2021/10/26 02:49:29;;;;;;;19.27;10.88;;;;;;;10.96;100.00;101490.13;4976321;28;20051;-77
2021/10/26 02:51:55;;;;;;;20.38;10.27;;;;;;;10.99;100.00;101500.50;4973627;28;20050;-77
2021/10/26 02:54:22;;;;;;;19.50;11.25;;;;;;;11.01;100.00;101498.75;4992266;28;20097;-76
2021/10/26 02:56:48;;;;;;;21.42;12.13;;;;;;;10.97;100.00;101492.72;4989178;28;20054;-76
2021/10/26 02:59:15;;;;;;;20.92;11.88;;;;;;;10.93;100.00;101497.97;4981591;28;20049;-76
2021/10/26 03:01:41;;;;;;;21.85;11.18;;;;;;;10.99;100.00;101495.31;4985712;28;20058;-76
2021/10/26 03:04:09;;;;;;;20.25;10.90;;;;;;;11.00;100.00;101492.69;4986401;28;20069;-77
2021/10/26 03:06:36;;;;;;;20.75;12.30;;;;;;;10.96;100.00;101487.50;4984706;28;20054;-77
2021/10/26 03:09:03;;;;;;;23.13;12.00;;;;;;;10.97;100.00;101486.63;4977774;28;20050;-77
2021/10/26 03:11:29;;;;;;;17.67;10.55;;;;;;;10.99;100.00;101484.88;4983368;28;20046;-76
2021/10/26 03:13:56;;;;;;;20.48;11.55;;;;;;;10.94;100.00;101492.75;4979032;28;20065;-76
2021/10/26 03:16:22;;;;;;;18.80;10.80;;;;;;;10.93;100.00;101490.16;4988460;28;20625;-76
2021/10/26 03:18:48;;;;;;;21.35;12.55;;;;;;;10.92;100.00;101498.84;4986685;28;20069;-77
2021/10/26 03:21:16;;;;;;;21.08;11.23;;;;;;;10.92;100.00;101494.50;4983728;28;20058;-77
2021/10/26 03:23:43;;;;;;;21.55;11.63;;;;;;;10.92;100.00;101491.88;4985396;28;20073;-74
2021/10/26 03:26:09;;;;;;;23.27;12.05;;;;;;;10.92;100.00;101498.84;4984795;28;20075;-77
2021/10/26 03:28:35;;;;;;;22.15;13.05;;;;;;;10.90;100.00;101493.63;4993798;28;20051;-76
2021/10/26 03:31:04;;;;;;;22.75;11.93;;;;;;;10.95;100.00;101493.59;4982605;28;20413;-76
2021/10/26 03:33:30;;;;;;;20.02;11.88;;;;;;;10.98;100.00;101494.41;4983851;28;20145;-76
2021/10/26 03:35:58;;;;;;;22.20;11.85;;;;;;;10.95;100.00;101502.28;4983034;28;20054;-76
2021/10/26 03:38:26;;;;;;;17.95;11.27;;;;;;;11.00;100.00;101502.25;4978193;28;20046;-76
2021/10/26 03:40:52;;;;;;;22.13;12.35;;;;;;;10.97;100.00;101502.25;4986680;28;20054;-77
2021/10/26 03:43:19;;;;;;;20.98;13.02;;;;;;;10.95;100.00;101499.69;4984736;28;20081;-78
2021/10/26 03:45:45;;;;;;;18.45;12.20;;;;;;;11.01;100.00;101503.97;4986697;28;20554;-76
2021/10/26 03:48:12;;;;;;;24.33;12.32;;;;;;;10.99;100.00;101505.72;4981455;28;20411;-75
2021/10/26 03:50:38;;;;;;;23.40;12.10;;;;;;;11.00;100.00;101507.44;4981709;28;20057;-75
2021/10/26 03:53:05;;;;;;;23.05;13.00;;;;;;;11.04;100.00;101509.13;4980824;28;20385;-76
2021/10/26 03:55:32;;;;;;;22.17;12.05;;;;;;;11.03;100.00;101510.00;4979948;28;20050;-76
2021/10/26 03:57:59;;;;;;;20.63;11.43;;;;;;;11.01;100.00;101511.78;4989187;28;20053;-76
2021/10/26 04:00:26;;;;;;;18.05;10.77;;;;;;;11.04;100.00;101517.81;4987933;28;20050;-75
2021/10/26 04:02:52;;;;;;;25.48;12.98;;;;;;;10.99;100.00;101514.38;4993041;28;20057;-75
2021/10/26 04:05:22;;;;;;;21.02;12.40;;;;;;;11.01;100.00;101514.38;4996702;28;20050;-74
2021/10/26 04:07:54;;;;;;;21.90;12.23;;;;;;;11.04;100.00;101519.53;5001855;28;20050;-75
2021/10/26 04:10:31;;;;;;;27.05;12.80;;;;;;;11.04;100.00;101520.41;5001089;28;20046;-78
2021/10/26 04:12:59;;;;;;;28.27;12.98;;;;;;;11.06;100.00;101520.41;5002665;28;20042;-78
2021/10/26 04:15:25;;;;;;;22.00;12.48;;;;;;;11.03;100.00;101525.63;5007128;28;20054;-79
2021/10/26 04:17:52;;;;;;;25.63;13.15;;;;;;;10.99;100.00;101532.59;5012733;28;20058;-76
2021/10/26 04:20:18;;;;;;;23.92;12.77;;;;;;;11.02;100.00;101534.34;5006935;28;20045;-79
2021/10/26 04:22:45;;;;;;;25.42;12.63;;;;;;;11.05;100.00;101534.28;5010908;28;20049;-78
2021/10/26 04:25:11;;;;;;;22.55;12.13;;;;;;;11.08;100.00;101536.03;4990542;28;20046;-75
2021/10/26 04:27:38;;;;;;;26.67;13.30;;;;;;;11.04;100.00;101532.56;4975932;28;20064;-77
2021/10/26 04:30:08;;;;;;;24.83;12.23;;;;;;;11.01;100.00;101536.06;4980960;28;20050;-76
2021/10/26 04:32:35;;;;;;;23.70;12.98;;;;;;;10.97;100.00;101534.38;4987679;28;20050;-76
2021/10/26 04:35:01;;;;;;;22.52;12.50;;;;;;;11.02;100.00;101527.38;4979800;28;20520;-75
2021/10/26 04:37:28;;;;;;;22.20;12.02;;;;;;;10.96;100.00;101537.84;4981048;28;20050;-76
2021/10/26 04:39:54;;;;;;;28.88;13.40;;;;;;;10.94;100.00;101541.31;4983910;28;20078;-76
2021/10/26 04:42:22;;;;;;;22.70;12.75;;;;;;;10.82;100.00;101535.34;4990229;28;20515;-76
2021/10/26 04:44:48;;;;;;;23.73;12.68;;;;;;;10.89;100.00;101538.75;4985119;28;20045;-75
2021/10/26 04:47:21;;;;;;;22.20;11.70;;;;;;;10.93;100.00;101545.69;4986493;28;20062;-76
2021/10/26 04:49:47;;;;;;;23.10;13.05;;;;;;;10.93;100.00;101550.03;4979620;28;20050;-73
2021/10/26 04:52:14;;;;;;;27.48;13.70;;;;;;;10.97;100.00;101549.13;4982973;28;20532;-75
2021/10/26 04:54:40;;;;;;;26.13;13.48;;;;;;;10.92;100.00;101540.50;4985981;28;20058;-75
2021/10/26 04:57:06;;;;;;;26.33;13.90;;;;;;;10.88;100.00;101542.22;4973722;28;20047;-75
2021/10/26 04:59:33;;;;;;;23.88;13.18;;;;;;;10.88;100.00;101550.03;4983161;28;20059;-76
2021/10/26 05:02:00;;;;;;;21.65;12.95;;;;;;;10.93;100.00;101547.44;4982382;28;20048;-74
2021/10/26 05:04:28;;;;;;;21.77;12.15;;;;;;;10.88;100.00;101550.91;4979023;28;20051;-75
2021/10/26 05:06:54;;;;;;;29.52;13.00;;;;;;;10.93;100.00;101555.25;4988884;28;20056;-76
2021/10/26 05:09:21;;;;;;;25.90;12.68;;;;;;;10.97;100.00;101555.19;4986632;28;20077;-76
2021/10/26 05:11:47;;;;;;;28.25;13.52;;;;;;;10.98;100.00;101558.66;4986272;28;20053;-75
2021/10/26 05:14:14;;;;;;;29.10;13.40;;;;;;;10.98;100.00;101561.25;4978212;28;20393;-75
2021/10/26 05:16:43;;;;;;;28.17;14.23;;;;;;;10.93;100.00;101566.50;4990456;28;20061;-74
2021/10/26 05:19:10;;;;;;;27.58;13.02;;;;;;;10.98;100.00;101566.47;4978537;28;20051;-75
2021/10/26 05:21:38;;;;;;;26.15;13.30;;;;;;;10.96;100.00;101573.41;4974859;28;20081;-75
2021/10/26 05:24:05;;;;;;;26.20;13.65;;;;;;;10.90;100.00;101574.31;4978981;28;20058;-75
2021/10/26 05:26:34;;;;;;;23.17;12.48;;;;;;;10.96;100.00;101568.22;4985777;28;20057;-75
2021/10/26 05:29:01;;;;;;;26.52;13.18;;;;;;;10.99;100.00;101568.19;4981903;28;20056;-75
2021/10/26 05:31:28;;;;;;;26.02;12.90;;;;;;;11.10;100.00;101561.16;4983650;28;20093;-75
2021/10/26 05:33:55;;;;;;;23.33;13.00;;;;;;;10.97;100.00;101567.34;4978942;28;20073;-75
2021/10/26 05:36:21;;;;;;;23.90;13.57;;;;;;;11.04;100.00;101562.06;4978262;28;20058;-76
2021/10/26 05:38:51;;;;;;;27.45;13.57;;;;;;;10.98;100.00;101556.06;4986804;28;20058;-75
2021/10/26 05:41:17;;;;;;;23.92;12.40;;;;;;;11.04;100.00;101556.00;4985929;28;20050;-75
2021/10/26 05:43:44;;;;;;;19.42;12.80;;;;;;;11.13;100.00;101566.31;4980543;28;20058;-76
2021/10/26 05:46:10;;;;;;;23.30;12.10;;;;;;;11.08;100.00;101560.31;4984900;28;20097;-75
2021/10/26 05:48:37;;;;;;;21.23;12.98;;;;;;;11.09;100.00;101563.75;4988980;28;20057;-75
2021/10/26 05:51:05;;;;;;;27.23;13.75;;;;;;;11.06;100.00;101566.41;4985748;28;20057;-73
2021/10/26 05:53:32;;;;;;;23.27;13.13;;;;;;;11.03;100.00;101575.09;4981970;28;20416;-75
2021/10/26 05:56:01;;;;;;;21.58;13.43;;;;;;;11.05;100.00;101575.94;4989392;28;20075;-75
2021/10/26 05:58:28;;;;;;;27.83;14.32;;;;;;;10.97;100.00;101577.75;4972909;28;20054;-75
2021/10/26 06:00:54;;;;;;;34.70;14.98;;;;;;;10.85;100.00;101589.97;4985861;28;20077;-75
2021/10/26 06:03:21;;;;;;;26.55;13.68;;;;;;;10.81;100.00;101590.00;4986338;28;20064;-74
2021/10/26 06:05:47;;;;;;;29.10;14.45;;;;;;;10.82;100.00;101591.72;4980969;28;20570;-75
2021/10/26 06:08:14;;;;;;;25.38;13.98;;;;;;;10.73;100.00;101598.72;4983614;28;20059;-76
2021/10/26 06:10:52;;;;;;;21.55;13.85;;;;;;;10.83;100.00;101598.66;4981819;28;20141;-74
2021/10/26 06:13:24;;;;;;;29.25;13.70;;;;;;;10.87;100.00;101603.00;4977279;28;20054;-75
2021/10/26 06:15:51;;;;;;;24.98;14.02;;;;;;;10.88;100.00;101595.16;4977951;28;20055;-75
2021/10/26 06:18:17;;;;;;;27.52;13.30;;;;;;;10.96;100.00;101607.25;4983867;28;20057;-75
2021/10/26 06:20:44;;;;;;;26.50;14.95;;;;;;;10.88;100.00;101612.50;4983260;28;20770;-76
2021/10/26 06:23:10;;;;;;;25.77;13.77;;;;;;;10.92;100.00;101615.97;4976932;28;20050;-76
2021/10/26 06:25:37;;;;;;;23.15;13.75;;;;;;;11.00;100.00;101622.00;4983020;28;20050;-75
2021/10/26 06:28:04;;;;;;;24.25;13.38;;;;;;;11.02;100.00;101625.44;4980094;28;20056;-75
2021/10/26 06:30:32;;;;;;;27.05;13.90;;;;;;;11.00;100.00;101635.00;4976352;28;20046;-76
2021/10/26 06:32:58;;;;;;;27.00;14.30;;;;;;;11.09;100.00;101632.34;4982749;28;20057;-76
2021/10/26 06:35:25;;;;;;;20.60;13.10;;;;;;;11.03;100.00;101632.34;4982915;28;20057;-76
2021/10/26 06:37:52;;;;;;;30.08;14.70;;;;;;;10.99;100.00;101643.69;4985432;28;20074;-75
2021/10/26 06:40:18;;;;;;;27.73;14.70;;;;;;;11.03;100.00;101646.25;4982712;28;20089;-76
2021/10/26 06:42:46;;;;;;;31.85;14.82;;;;;;;11.07;100.00;101649.69;4979959;28;20073;-75
2021/10/26 06:45:13;;;;;;;28.45;15.50;;;;;;;11.02;100.00;101647.13;4982459;28;20510;-73
2021/10/26 06:47:41;;;;;;;30.67;15.10;;;;;;;11.03;100.00;101658.41;4979904;28;20057;-76
2021/10/26 06:50:09;;;;;;;31.40;15.65;;;;;;;11.00;100.00;101664.50;4985362;28;20050;-74
2021/10/26 06:52:37;;;;;;;31.05;15.98;;;;;;;11.06;100.00;101657.53;4982091;28;20050;-75
2021/10/26 06:55:05;;;;;;;28.42;16.17;;;;;;;10.98;100.00;101660.19;4981434;28;20054;-73
2021/10/26 06:57:31;;;;;;;25.98;15.45;;;;;;;11.02;100.00;101664.50;4983986;28;20050;-75
2021/10/26 06:59:58;;;;;;;33.05;16.30;;;;;;;11.19;100.00;101669.56;4984560;28;20054;-72
2021/10/26 07:02:24;;;;;;;27.67;14.88;;;;;;;11.31;100.00;101664.28;4983580;28;20483;-74
2021/10/26 07:04:53;;;;;;;25.70;15.10;;;;;;;11.34;100.00;101666.88;4983170;28;20042;-75
2021/10/26 07:07:20;;;;;;;29.75;15.60;;;;;;;11.26;100.00;101671.28;4982625;28;20057;-74
2021/10/26 07:09:46;;;;;;;29.00;16.77;;;;;;;11.28;100.00;101671.25;4980015;28;20065;-76
2021/10/26 07:12:13;;;;;;;31.13;15.73;;;;;;;11.44;100.00;101672.03;4972878;28;20053;-75
2021/10/26 07:14:39;;;;;;;33.60;16.95;;;;;;;11.38;100.00;101665.13;4981143;28;20057;-74
2021/10/26 07:17:06;;;;;;;30.90;17.05;;;;;;;11.39;100.00;101672.06;4980021;28;20046;-73
2021/10/26 07:19:32;;;;;;;34.95;17.95;;;;;;;11.38;100.00;101667.72;4979676;28;20051;-75
2021/10/26 07:22:00;;;;;;;33.45;16.75;;;;;;;11.40;100.00;101668.56;4982979;28;20050;-74
2021/10/26 07:24:27;;;;;;;34.40;17.67;;;;;;;11.37;100.00;101672.94;4984965;28;20050;-74
2021/10/26 07:26:54;;;;;;;28.65;16.45;;;;;;;11.47;100.00;101678.06;4981620;28;20050;-75
2021/10/26 07:29:20;;;;;;;36.80;16.75;;;;;;;11.47;100.00;101675.47;4982320;28;20057;-74
2021/10/26 07:31:47;;;;;;;28.98;15.68;;;;;;;11.42;100.00;101687.66;4976361;28;20054;-76
2021/10/26 07:34:13;;;;;;;28.73;15.45;;;;;;;11.42;100.00;101692.88;4978918;28;20472;-74
2021/10/26 07:36:42;;;;;;;32.72;16.80;;;;;;;11.42;100.00;101692.00;4982756;28;20050;-75
2021/10/26 07:39:29;;;;;;;32.55;16.30;;;;;;;11.46;100.00;101701.53;4981073;28;20050;-75
2021/10/26 07:41:59;;;;;;;29.55;17.52;;;;;;;11.39;100.00;101708.53;4984142;28;20050;-75
2021/10/26 07:44:25;;;;;;;32.50;17.13;;;;;;;11.36;100.00;101703.31;4969686;28;20059;-75
2021/10/26 07:46:52;;;;;;;30.10;17.48;;;;;;;11.40;100.00;101697.22;4990887;28;20083;-75
2021/10/26 07:49:19;;;;;;;30.25;17.85;;;;;;;11.41;100.00;101696.34;4980850;28;20050;-75
2021/10/26 07:51:46;;;;;;;29.27;16.95;;;;;;;11.35;100.00;101701.59;4979659;28;20054;-75
2021/10/26 07:54:13;;;;;;;38.88;17.98;;;;;;;11.37;100.00;101710.28;4981088;28;20046;-72
2021/10/26 07:56:40;;;;;;;31.05;17.00;;;;;;;11.48;100.00;101716.28;4982565;28;20057;-75
2021/10/26 07:59:06;;;;;;;28.80;16.30;;;;;;;11.51;100.00;101708.44;4979900;28;20049;-76
2021/10/26 08:01:33;;;;;;;31.77;17.42;;;;;;;11.50;100.00;101711.91;4981460;28;20063;-76
2021/10/26 08:04:00;;;;;;;37.22;17.05;;;;;;;11.48;100.00;101718.00;4980199;28;20054;-75
2021/10/26 08:06:27;;;;;;;29.17;16.77;;;;;;;11.43;100.00;101725.84;4979606;28;20500;-75
2021/10/26 08:08:53;;;;;;;35.67;16.63;;;;;;;11.45;100.00;101728.47;4977548;28;20056;-73
2021/10/26 08:11:21;;;;;;;30.95;17.08;;;;;;;11.47;100.00;101730.16;4979786;28;20503;-75
2021/10/26 08:13:47;;;;;;;30.25;17.08;;;;;;;11.51;100.00;101739.72;4977027;28;20046;-74
2021/10/26 08:16:14;;;;;;;30.02;18.98;;;;;;;11.59;100.00;101734.41;4978601;28;20057;-74
2021/10/26 08:18:41;;;;;;;28.88;17.17;;;;;;;11.45;100.00;101736.28;4977640;28;20050;-75
2021/10/26 08:21:08;;;;;;;26.73;16.80;;;;;;;11.45;100.00;101738.88;4980032;28;20064;-75
2021/10/26 08:23:34;;;;;;;32.47;17.90;;;;;;;11.49;99.74;101735.38;4978834;28;20500;-75
2021/10/26 08:26:01;;;;;;;28.77;15.25;;;;;;;11.47;99.71;101735.38;4981053;28;20042;-73
2021/10/26 08:28:29;;;;;;;25.77;16.00;;;;;;;11.56;99.46;101730.97;4979795;28;20054;-74
2021/10/26 08:31:00;;;;;;;26.92;14.07;;;;;;;11.62;98.82;101725.75;4979169;28;20046;-75
2021/10/26 08:33:39;;;;;;;26.88;14.65;;;;;;;11.63;98.00;101730.03;4982951;28;20112;-75
2021/10/26 08:36:05;;;;;;;24.90;14.05;;;;;;;11.70;98.13;101726.53;4980239;28;20084;-75
2021/10/26 08:38:32;;;;;;;32.95;16.70;;;;;;;11.70;97.50;101729.16;4977701;28;20057;-74
2021/10/26 08:40:59;;;;;;;30.90;16.60;;;;;;;11.72;98.06;101724.78;4980682;28;20054;-74
2021/10/26 08:43:26;;;;;;;28.10;17.05;;;;;;;11.79;97.77;101726.47;4976334;28;20051;-75
2021/10/26 08:46:03;;;;;;;26.00;15.98;;;;;;;11.89;95.83;101714.19;4983165;28;20046;-75
2021/10/26 08:48:30;;;;;;;26.00;16.00;;;;;;;11.82;96.66;101720.34;4978987;28;20464;-74
2021/10/26 08:51:00;;;;;;;26.65;16.15;;;;;;;11.77;96.14;101724.75;4979928;28;20087;-76
2021/10/26 08:53:29;;;;;;;31.92;16.23;;;;;;;11.79;95.67;101725.59;4977397;28;20424;-75
2021/10/26 08:55:58;;;;;;;21.42;12.98;;;;;;;11.80;95.64;101728.19;4982230;28;20042;-74
2021/10/26 08:58:38;;;;;;;24.17;13.23;;;;;;;11.69;96.50;101727.41;4980279;28;20484;-76
2021/10/26 09:01:06;;;;;;;29.45;13.90;;;;;;;11.79;95.75;101729.06;4980913;28;20056;-76
2021/10/26 09:03:36;;;;;;;22.67;13.60;;;;;;;11.90;95.92;101722.91;4980649;28;20057;-75
2021/10/26 09:06:04;;;;;;;23.52;12.93;;;;;;;11.87;95.75;101721.19;4977457;28;20045;-74
2021/10/26 09:08:31;;;;;;;25.25;13.88;;;;;;;11.93;96.38;101725.47;4982303;28;20050;-76
2021/10/26 09:11:03;;;;;;;23.88;13.75;;;;;;;12.08;95.83;101725.38;4980615;28;21522;-75
2021/10/26 09:16:42;;;;;;;32.00;14.38;;;;;;;12.11;95.40;101720.13;4975968;28;20418;-75
2021/10/26 09:19:10;;;;;;;23.57;13.83;;;;;;;12.23;94.90;101723.47;4973983;28;20046;-75
2021/10/26 09:21:37;;;;;;;27.30;13.98;;;;;;;12.32;94.74;101719.91;4981851;28;20309;-75
2021/10/26 09:24:08;;;;;;;28.67;14.98;;;;;;;12.40;94.58;101718.97;4983130;28;20058;-76
2021/10/26 09:26:48;;;;;;;20.13;13.23;;;;;;;12.60;94.33;101723.09;4978681;28;20054;-76
2021/10/26 09:29:16;;;;;;;19.58;12.95;;;;;;;12.62;94.04;101721.31;4982487;28;20839;-76
2021/10/26 09:31:44;;;;;;;22.42;12.63;;;;;;;12.74;93.04;101725.53;4980727;28;20050;-75
2021/10/26 09:34:13;;;;;;;23.85;13.20;;;;;;;12.84;93.03;101721.03;4975021;28;20051;-76
2021/10/26 09:36:41;;;;;;;16.80;10.10;;;;;;;13.04;93.37;101720.78;4978469;28;20696;-75
2021/10/26 09:39:10;;;;;;;23.25;11.95;;;;;;;13.20;91.08;101719.69;4989190;28;20053;-75
2021/10/26 09:41:38;;;;;;;21.63;9.80;;;;;;;13.26;90.80;101716.09;4983531;28;20145;-75
2021/10/26 09:44:10;;;;;;;26.95;10.43;;;;;;;13.46;89.91;101715.84;4985847;28;20523;-76
2021/10/26 09:46:37;;;;;;;17.38;8.65;;;;;;;13.52;89.60;101712.28;4981381;28;20104;-75
2021/10/26 09:49:04;;;;;;;18.27;7.28;;;;;;;13.52;88.07;101715.75;4983767;28;20058;-76
2021/10/26 09:51:33;;;;;;;19.38;7.47;;;;;;;13.40;87.60;101726.38;4982341;28;20109;-75
2021/10/26 09:54:00;;;;;;;13.82;6.63;;;;;;;13.40;88.21;101725.53;4983549;28;20599;-76
2021/10/26 09:56:26;;;;;;;16.35;7.25;;;;;;;13.22;88.64;101723.13;4980268;28;20125;-76
2021/10/26 09:59:14;;;;;;;16.00;6.65;;;;;;;13.19;88.22;101722.31;4983965;28;20750;-76
2021/10/26 10:01:52;;;;;;;18.38;6.80;;;;;;;13.22;88.09;101724.91;4981756;28;20509;-74
2021/10/26 10:04:26;;;;;;;16.52;6.47;;;;;;;13.26;88.05;101734.41;4975504;28;20125;-73
2021/10/26 10:06:53;;;;;;;15.70;6.72;;;;;;;13.09;89.74;101736.41;4979106;28;20124;-74
2021/10/26 10:09:20;;;;;;;15.88;6.32;;;;;;;13.20;88.88;101747.56;4984651;28;20049;-74
2021/10/26 10:11:58;;;;;;;14.98;5.80;;;;;;;13.35;88.38;101744.72;4978168;28;20057;-75
2021/10/26 10:14:25;;;;;;;14.65;7.22;;;;;;;13.39;88.35;101748.19;4982607;28;20060;-75
2021/10/26 10:16:54;;;;;;;13.85;5.47;;;;;;;13.56;87.55;101747.09;4982094;28;20046;-75
2021/10/26 10:19:21;;;;;;;13.27;6.03;;;;;;;13.61;87.76;101745.25;4982497;28;20092;-74
2021/10/26 10:21:50;;;;;;;14.77;5.78;;;;;;;13.61;86.79;101746.13;4979715;28;20733;-76
2021/10/26 10:24:18;;;;;;;15.20;6.47;;;;;;;13.83;86.04;101736.16;4983241;28;20042;-75
2021/10/26 10:26:49;;;;;;;16.17;5.78;;;;;;;13.91;85.33;101732.56;4977270;28;20045;-74
2021/10/26 10:29:19;;;;;;;14.35;6.13;;;;;;;14.00;84.86;101732.38;4982677;28;20061;-75
2021/10/26 10:31:47;;;;;;;12.15;5.60;;;;;;;14.12;84.62;101729.56;4976685;28;20066;-75
2021/10/26 10:34:14;;;;;;;14.75;5.30;;;;;;;14.17;82.89;101739.94;4983877;28;20500;-74
2021/10/26 10:36:41;;;;;;;11.48;5.80;;;;;;;14.06;83.46;101736.66;4979572;28;20541;-74
2021/10/26 10:39:10;;;;;;;17.77;6.13;;;;;;;14.13;84.25;101738.25;4984226;28;20050;-75
2021/10/26 10:41:41;;;;;;;16.58;5.90;;;;;;;14.17;83.19;101739.94;4980082;28;20054;-75
2021/10/26 10:44:38;;;;;;;11.73;5.18;;;;;;;14.09;83.61;101734.84;4983320;28;20077;-75
2021/10/26 10:47:05;;;;;;;15.68;6.13;;;;;;;14.11;84.01;101732.22;4977961;28;20137;-74
2021/10/26 10:49:45;;;;;;;13.57;5.50;;;;;;;14.30;83.89;101728.38;4982939;28;20046;-74
2021/10/26 10:52:15;;;;;;;12.43;4.93;;;;;;;14.48;83.03;101730.63;4979155;28;20624;-76
2021/10/26 10:54:48;;;;;;;13.05;5.10;;;;;;;14.32;83.60;101723.09;4976824;28;20050;-74
2021/10/26 10:57:21;;;;;;;10.02;4.78;;;;;;;14.50;83.02;101729.75;4984084;28;20066;-75
2021/10/26 10:59:49;;;;;;;18.13;6.10;;;;;;;14.54;81.50;101728.75;4973720;28;20644;-75
2021/10/26 11:02:23;;;;;;;15.60;5.00;;;;;;;14.57;81.37;101728.72;4979165;28;20061;-75
2021/10/26 11:04:51;;;;;;;11.77;4.07;;;;;;;14.56;81.58;101726.13;4975955;28;20065;-71
2021/10/26 11:07:51;;;;;;;12.73;4.85;;;;;;;14.67;79.79;101723.31;4980479;28;20069;-75
2021/10/26 11:10:20;;;;;;;16.50;4.70;;;;;;;14.60;80.96;101728.66;4977018;28;20137;-73
2021/10/26 11:12:48;;;;;;;17.15;5.53;;;;;;;14.65;81.08;101731.19;4980421;28;20108;-74